KBWG/BWG METAR and TAF weather

Enter ICAO airport designator
Station Type Date Time Source
KBWG METAR 2023/02/04 00:53 UTC NOAA

KBWG 040053Z AUTO 30004KT 10SM CLR M02/M13 A3058 RMK AO2 SLP362 T10221128


Station Type Date Time Source
KBWG Decoded METAR 2023/02/04 00:53 UTC NOAA

BOWLING GREEN-WARREN CO RGNL, KY, United States (KBWG) 36-58N 086-25W 161M
Feb 03, 2023 - 07:53 PM EST / 2023.02.04 0053 UTC
Wind: from the WNW (300 degrees) at 5 MPH (4 KT):0
Visibility: 10 mile(s):0
Sky conditions: clear
Temperature: 28.0 F (-2.2 C)
Windchill: 23 F (-5 C):1
Dew Point: 9.0 F (-12.8 C)
Relative Humidity: 44%
Pressure (altimeter): 30.58 in. Hg (1035 hPa)
ob: KBWG 040053Z AUTO 30004KT 10SM CLR M02/M13 A3058 RMK AO2 SLP362 T10221128
cycle: 1

Station Type Date Time Source
KBWG TAF 2023/02/03 18:22 UTC NOAA

TAF KBWG 031720Z 0318/0418 34009KT P6SM SKC
FM032300 VRB04KT P6SM SKC
FM041500 20011KT P6SM SCT250

Example: see airport list